Time;durP1;ratioP1;P1;durP2;ratioP2;P2;SDS_P1;SDS_P2;PMS_P1;PMS_P2;Temp;Humidity;BMP_temperature;BMP_pressure;BME280_temperature;BME280_humidity;BME280_pressure;Samples;Min_cycle;Max_cycle;Signal;HPM_P1;HPM_P2
2023/01/04 00:02:07;;;;;;;23.53;14.70;;;;;;;9.68;100.00;95609.81;5085678;28;20197;-82
2023/01/04 00:04:34;;;;;;;23.47;14.97;;;;;;;9.72;100.00;95600.66;5085818;28;20189;-83
2023/01/04 00:07:01;;;;;;;20.73;13.63;;;;;;;9.77;100.00;95606.09;5085456;28;20220;-82
2023/01/04 00:09:27;;;;;;;24.90;13.83;;;;;;;9.71;100.00;95604.25;5085698;28;20196;-84
2023/01/04 00:11:54;;;;;;;22.50;13.47;;;;;;;9.73;100.00;95596.25;5082695;28;20192;-84
2023/01/04 00:14:21;;;;;;;21.80;13.53;;;;;;;9.74;100.00;95614.25;5086464;28;20197;-83
2023/01/04 00:16:48;;;;;;;24.87;12.70;;;;;;;9.75;100.00;95605.50;5087573;28;20201;-86
2023/01/04 00:19:16;;;;;;;22.40;13.03;;;;;;;9.73;100.00;95602.25;5086021;28;21544;-86
2023/01/04 00:21:43;;;;;;;21.27;13.17;;;;;;;9.72;100.00;95613.66;5086322;28;20212;-87
2023/01/04 00:24:14;;;;;;;21.80;13.30;;;;;;;9.67;100.00;95593.44;5087126;28;20695;-86
2023/01/04 00:26:41;;;;;;;20.77;12.67;;;;;;;9.58;100.00;95580.81;5086168;28;20241;-84
2023/01/04 00:29:12;;;;;;;17.20;11.93;;;;;;;9.75;100.00;95604.69;5087590;28;20228;-84
2023/01/04 00:31:39;;;;;;;20.83;12.07;;;;;;;9.69;100.00;95598.44;5090147;28;20671;-84
2023/01/04 00:34:07;;;;;;;19.17;11.90;;;;;;;9.72;100.00;95618.03;5089244;28;20236;-85
2023/01/04 00:36:35;;;;;;;14.80;10.27;;;;;;;9.66;100.00;95598.81;5085617;28;20193;-84
2023/01/04 00:39:08;;;;;;;16.83;10.80;;;;;;;9.84;100.00;95611.34;5090620;28;20204;-88
2023/01/04 00:41:38;;;;;;;19.03;11.87;;;;;;;9.79;100.00;95608.47;5089218;28;20197;-87
2023/01/04 00:44:06;;;;;;;19.63;11.57;;;;;;;9.75;100.00;95597.69;5088266;28;20205;-87
2023/01/04 00:46:33;;;;;;;16.30;11.57;;;;;;;9.82;100.00;95608.09;5090824;28;20212;-88
2023/01/04 00:49:04;;;;;;;17.93;11.83;;;;;;;9.77;100.00;95603.50;5089080;28;20612;-83
2023/01/04 00:51:33;;;;;;;20.10;12.87;;;;;;;9.66;100.00;95610.00;5088874;28;20204;-82
2023/01/04 00:54:03;;;;;;;19.83;12.33;;;;;;;9.69;100.00;95612.25;5089917;28;20196;-83
2023/01/04 00:56:30;;;;;;;18.90;11.63;;;;;;;9.65;100.00;95617.97;5088625;28;20204;-82
2023/01/04 00:58:58;;;;;;;17.83;12.10;;;;;;;9.63;100.00;95617.38;5088098;28;20576;-82
2023/01/04 01:01:27;;;;;;;19.60;12.40;;;;;;;9.63;100.00;95619.97;5087781;28;20196;-82
2023/01/04 01:03:54;;;;;;;19.83;12.57;;;;;;;9.56;100.00;95604.34;5088437;28;20189;-90
2023/01/04 01:06:21;;;;;;;21.50;12.97;;;;;;;9.64;100.00;95618.94;5091662;28;20725;-90
2023/01/04 01:08:48;;;;;;;20.67;13.33;;;;;;;9.44;100.00;95600.63;5092050;28;20208;-91
2023/01/04 01:11:16;;;;;;;20.93;13.60;;;;;;;9.55;100.00;95620.88;5090798;28;20205;-92
2023/01/04 01:13:43;;;;;;;22.50;13.30;;;;;;;9.59;100.00;95629.09;5088519;28;20200;-90
2023/01/04 01:16:12;;;;;;;21.47;13.23;;;;;;;9.47;100.00;95615.03;5087634;28;20223;-83
2023/01/04 01:18:40;;;;;;;20.97;12.77;;;;;;;9.63;100.00;95632.94;5086306;28;20200;-83
2023/01/04 01:21:09;;;;;;;22.20;12.80;;;;;;;9.52;100.00;95630.84;5086780;28;20201;-82
2023/01/04 01:23:36;;;;;;;18.87;12.87;;;;;;;9.59;100.00;95635.09;5089073;28;20193;-83
2023/01/04 01:26:05;;;;;;;23.27;13.67;;;;;;;9.56;100.00;95635.47;5087863;28;20201;-84
2023/01/04 01:28:34;;;;;;;24.73;14.13;;;;;;;9.56;100.00;95630.28;5088050;28;20228;-82
2023/01/04 01:31:06;;;;;;;22.70;14.30;;;;;;;9.55;100.00;95630.47;5089775;28;20200;-82
2023/01/04 01:33:33;;;;;;;23.57;14.33;;;;;;;9.45;100.00;95617.00;5088432;28;20228;-83
2023/01/04 01:36:00;;;;;;;20.80;14.00;;;;;;;9.32;100.00;95603.94;5089274;28;20205;-87
2023/01/04 01:38:27;;;;;;;21.03;13.17;;;;;;;9.43;100.00;95632.78;5088307;28;20292;-85
2023/01/04 01:40:54;;;;;;;21.03;13.43;;;;;;;9.48;100.00;95629.63;5088528;28;20683;-84
2023/01/04 01:43:23;;;;;;;22.43;14.70;;;;;;;9.55;100.00;95628.66;5088113;28;20216;-83
2023/01/04 01:45:54;;;;;;;22.67;14.47;;;;;;;9.50;100.00;95622.44;5088914;28;20267;-83
2023/01/04 01:48:28;;;;;;;24.77;15.40;;;;;;;9.53;100.00;95632.44;5089416;28;20205;-83
2023/01/04 01:50:59;;;;;;;23.07;14.37;;;;;;;9.56;100.00;95630.28;5086209;28;20207;-82
2023/01/04 01:53:28;;;;;;;23.80;14.50;;;;;;;9.52;100.00;95629.03;5088278;28;20197;-84
2023/01/04 01:55:57;;;;;;;24.93;13.63;;;;;;;9.55;100.00;95618.28;5089287;28;20264;-82
2023/01/04 01:58:28;;;;;;;23.97;15.40;;;;;;;9.52;100.00;95621.25;5088139;28;20270;-83
2023/01/04 02:00:57;;;;;;;24.77;15.57;;;;;;;9.48;100.00;95601.06;5088510;28;20219;-82
2023/01/04 02:03:27;;;;;;;24.67;15.60;;;;;;;9.48;100.00;95619.22;5086502;28;20188;-83
2023/01/04 02:05:55;;;;;;;27.97;16.27;;;;;;;9.47;100.00;95612.44;5089805;28;20197;-83
2023/01/04 02:08:24;;;;;;;23.73;15.47;;;;;;;9.45;100.00;95612.63;5090215;28;20229;-84
2023/01/04 02:10:51;;;;;;;24.83;15.17;;;;;;;9.44;100.00;95616.19;5091804;28;20193;-84
2023/01/04 02:13:22;;;;;;;25.10;15.63;;;;;;;9.46;100.00;95613.44;5091841;28;20204;-89
2023/01/04 02:16:06;;;;;;;24.53;15.23;;;;;;;9.30;100.00;95616.28;5095039;28;20290;-88
2023/01/04 02:18:44;;;;;;;27.40;16.43;;;;;;;9.24;100.00;95620.41;5094308;28;20249;-89
2023/01/04 02:21:18;;;;;;;26.20;15.60;;;;;;;9.05;100.00;95601.09;5099839;28;20212;-88
2023/01/04 02:24:17;;;;;;;27.83;16.97;;;;;;;9.14;100.00;95612.16;5099749;28;20189;-87
2023/01/04 02:27:10;;;;;;;31.77;15.90;;;;;;;9.05;100.00;95613.25;5089359;28;20200;-83
2023/01/04 02:30:08;;;;;;;20.93;14.37;;;;;;;8.91;100.00;95622.69;5088162;28;20576;-84
2023/01/04 02:32:55;;;;;;;23.40;13.90;;;;;;;8.83;100.00;95615.00;5083129;28;20197;-83
2023/01/04 02:35:29;;;;;;;21.83;13.40;;;;;;;8.60;100.00;95606.56;5086075;28;20663;-82
2023/01/04 02:38:05;;;;;;;26.83;14.70;;;;;;;8.49;100.00;95597.50;5086353;28;20193;-83
2023/01/04 02:40:42;;;;;;;22.00;13.80;;;;;;;8.56;100.00;95607.94;5088053;28;20181;-83
2023/01/04 02:46:05;;;;;;;23.73;14.63;;;;;;;8.40;100.00;95601.16;5084538;28;20789;-86
2023/01/04 02:51:28;;;;;;;26.47;15.10;;;;;;;8.41;100.00;95605.38;5088270;28;20188;-86
2023/01/04 02:53:57;;;;;;;23.97;14.80;;;;;;;8.31;100.00;95601.47;5085798;28;20181;-85
2023/01/04 02:56:40;;;;;;;25.97;14.87;;;;;;;8.37;100.00;95600.72;5083094;28;20213;-83
2023/01/04 02:59:33;;;;;;;22.60;14.00;;;;;;;8.31;100.00;95607.41;5087556;28;20189;-86
2023/01/04 03:07:54;;;;;;;22.87;14.23;;;;;;;8.42;100.00;95606.19;5086895;28;20223;-86
2023/01/04 03:10:31;;;;;;;25.37;15.03;;;;;;;8.48;100.00;95602.88;5087952;28;20185;-88
2023/01/04 03:13:02;;;;;;;24.27;14.80;;;;;;;8.52;100.00;95596.31;5088256;28;20197;-85
2023/01/04 03:15:34;;;;;;;26.37;15.17;;;;;;;8.50;100.00;95588.75;5086049;28;20296;-84
2023/01/04 03:18:07;;;;;;;26.87;16.37;;;;;;;8.51;100.00;95597.34;5084238;28;20249;-84
2023/01/04 03:20:36;;;;;;;28.37;15.03;;;;;;;8.50;100.00;95603.47;5087951;28;20200;-85
2023/01/04 03:37:14;;;;;;;22.77;14.80;;;;;;;8.38;100.00;95607.50;5083680;28;20199;-85
2023/01/04 03:48:32;;;;;;;28.47;15.60;;;;;;;8.32;100.00;95616.81;5086949;28;20215;-86
2023/01/04 03:51:07;;;;;;;24.20;15.53;;;;;;;8.31;100.00;95612.59;5083246;28;20344;-85
2023/01/04 03:53:43;;;;;;;27.57;16.17;;;;;;;8.41;100.00;95625.28;5082300;28;20566;-86
2023/01/04 03:56:12;;;;;;;23.10;14.27;;;;;;;8.39;100.00;95612.53;5087133;28;20184;-85
2023/01/04 03:58:39;;;;;;;22.83;14.83;;;;;;;8.28;100.00;95615.56;5086280;28;20196;-86
2023/01/04 04:01:07;;;;;;;22.47;14.73;;;;;;;8.22;100.00;95616.25;5086642;28;20189;-85
2023/01/04 04:09:04;;;;;;;26.93;14.93;;;;;;;7.96;100.00;95585.63;5090189;28;20235;-85
2023/01/04 04:11:31;;;;;;;29.23;16.20;;;;;;;8.09;100.00;95603.13;5090575;28;20203;-87
2023/01/04 04:13:59;;;;;;;28.97;16.27;;;;;;;8.12;100.00;95602.78;5089115;28;20192;-85
2023/01/04 04:16:27;;;;;;;32.47;17.33;;;;;;;8.18;100.00;95614.19;5090080;28;20200;-86
2023/01/04 04:18:54;;;;;;;29.77;16.37;;;;;;;8.23;100.00;95628.22;5091400;28;20209;-87
2023/01/04 04:21:21;;;;;;;25.33;15.30;;;;;;;8.13;100.00;95612.16;5088932;28;20292;-89
2023/01/04 04:23:48;;;;;;;24.67;15.57;;;;;;;8.22;100.00;95633.59;5092138;28;20204;-88
2023/01/04 04:26:17;;;;;;;28.17;15.83;;;;;;;8.06;100.00;95607.84;5091701;28;20200;-88
2023/01/04 04:28:44;;;;;;;27.27;15.60;;;;;;;8.11;100.00;95613.31;5096019;28;20216;-88
2023/01/04 04:31:10;;;;;;;31.60;15.93;;;;;;;8.21;100.00;95630.19;5088426;28;20205;-83
2023/01/04 04:33:37;;;;;;;23.00;15.17;;;;;;;8.16;100.00;95623.94;5090586;28;20237;-87
2023/01/04 04:36:05;;;;;;;28.97;15.73;;;;;;;8.23;100.00;95640.34;5089818;28;20662;-85
2023/01/04 04:38:32;;;;;;;23.80;13.53;;;;;;;8.22;100.00;95636.16;5085833;28;20199;-74
2023/01/04 04:43:45;;;;;;;23.97;14.03;;;;;;;7.98;100.00;95645.81;5082384;28;20681;-74
2023/01/04 04:46:12;;;;;;;21.53;14.53;;;;;;;8.01;100.00;95642.06;5080783;28;20192;-74
2023/01/04 04:48:39;;;;;;;26.23;16.07;;;;;;;8.08;100.00;95644.75;5083295;28;20317;-75
2023/01/04 04:51:06;;;;;;;26.87;15.80;;;;;;;8.12;100.00;95638.22;5082735;28;20205;-74
2023/01/04 04:53:32;;;;;;;23.63;15.13;;;;;;;8.04;100.00;95640.88;5080815;28;20199;-74
2023/01/04 04:55:59;;;;;;;27.57;15.53;;;;;;;8.02;100.00;95639.28;5081430;28;20193;-74
2023/01/04 04:58:26;;;;;;;25.83;14.80;;;;;;;7.87;100.00;95633.28;5081232;28;20211;-74
2023/01/04 05:00:54;;;;;;;27.90;16.20;;;;;;;7.85;100.00;95637.81;5080611;28;20204;-73
2023/01/04 05:03:21;;;;;;;29.03;15.87;;;;;;;7.78;100.00;95643.91;5084880;28;20196;-73
2023/01/04 05:05:48;;;;;;;28.43;16.67;;;;;;;7.81;100.00;95649.53;5081580;28;20570;-74
2023/01/04 05:08:15;;;;;;;28.70;16.47;;;;;;;7.79;100.00;95654.06;5081775;28;20217;-74
2023/01/04 05:10:41;;;;;;;31.10;17.73;;;;;;;7.88;100.00;95658.19;5080709;28;20204;-74
2023/01/04 05:13:11;;;;;;;37.60;18.87;;;;;;;7.72;100.00;95660.13;5080809;28;20200;-74
2023/01/04 05:15:40;;;;;;;30.10;17.30;;;;;;;7.78;100.00;95662.00;5081230;28;20204;-74
2023/01/04 05:18:09;;;;;;;26.33;15.80;;;;;;;7.76;100.00;95659.56;5081868;28;20185;-75
2023/01/04 05:20:36;;;;;;;27.37;16.07;;;;;;;7.75;100.00;95660.56;5083596;28;20561;-75
2023/01/04 05:23:03;;;;;;;28.80;16.13;;;;;;;7.83;100.00;95663.09;5082546;28;20189;-74
2023/01/04 05:25:30;;;;;;;25.73;15.83;;;;;;;7.70;100.00;95641.38;5081642;28;20193;-75
2023/01/04 05:27:57;;;;;;;25.57;15.97;;;;;;;7.85;100.00;95647.41;5083521;28;20243;-75
2023/01/04 05:33:11;;;;;;;32.97;17.73;;;;;;;7.77;100.00;95650.84;5037995;28;20231;-76
2023/01/04 05:35:38;;;;;;;30.03;16.30;;;;;;;7.77;100.00;95662.97;5052613;28;20211;-75
2023/01/04 05:38:05;;;;;;;26.47;15.53;;;;;;;7.77;100.00;95655.22;5056710;28;20308;-75
2023/01/04 05:40:31;;;;;;;27.73;15.97;;;;;;;7.69;100.00;95657.88;5058611;28;21239;-75
2023/01/04 05:42:58;;;;;;;37.27;17.20;;;;;;;7.73;100.00;95667.72;5059497;28;20200;-74
2023/01/04 05:45:25;;;;;;;30.13;17.80;;;;;;;7.82;100.00;95674.41;5054053;28;21049;-75
2023/01/04 05:47:53;;;;;;;49.13;24.63;;;;;;;7.86;100.00;95677.44;5059460;28;20221;-74
2023/01/04 05:50:22;;;;;;;37.43;22.30;;;;;;;7.92;100.00;95672.38;5059662;28;20702;-74
2023/01/04 05:52:49;;;;;;;41.23;21.40;;;;;;;7.99;100.00;95681.03;5055447;28;20676;-73
2023/01/04 05:55:16;;;;;;;31.00;19.50;;;;;;;7.98;100.00;95674.28;5056647;28;20211;-74
2023/01/04 05:57:43;;;;;;;55.77;27.57;;;;;;;8.01;100.00;95670.53;5059530;28;20200;-72
2023/01/04 06:00:12;;;;;;;47.07;23.23;;;;;;;8.02;100.00;95659.19;5055743;28;20204;-74
2023/01/04 06:02:40;;;;;;;30.20;18.73;;;;;;;8.11;100.00;95672.88;5058349;28;20227;-75
2023/01/04 06:05:09;;;;;;;35.47;20.60;;;;;;;8.02;100.00;95679.91;5058767;28;20204;-74
2023/01/04 06:07:37;;;;;;;54.40;26.07;;;;;;;8.02;100.00;95676.50;5058107;28;20201;-74
2023/01/04 06:10:05;;;;;;;35.23;20.57;;;;;;;8.10;100.00;95677.22;5058148;28;20209;-75
2023/01/04 06:12:32;;;;;;;32.93;18.67;;;;;;;8.05;100.00;95683.91;5056806;28;20728;-74
2023/01/04 06:14:59;;;;;;;29.73;17.37;;;;;;;8.05;100.00;95686.50;5056312;28;20197;-74
2023/01/04 06:17:26;;;;;;;29.83;16.20;;;;;;;8.03;100.00;95676.31;5055644;28;20211;-74
2023/01/04 06:19:52;;;;;;;26.80;16.07;;;;;;;8.04;100.00;95685.72;5056410;28;21000;-74
2023/01/04 06:22:20;;;;;;;32.17;17.63;;;;;;;8.08;100.00;95696.53;5059394;28;20208;-74
2023/01/04 06:24:48;;;;;;;30.00;16.63;;;;;;;8.06;100.00;95703.63;5057889;28;20207;-74
2023/01/04 06:27:15;;;;;;;25.23;16.07;;;;;;;8.04;100.00;95698.66;5057780;28;20193;-74
2023/01/04 06:29:41;;;;;;;26.03;16.47;;;;;;;8.10;100.00;95694.53;5058596;28;20220;-75
2023/01/04 06:32:08;;;;;;;28.10;16.93;;;;;;;8.09;100.00;95698.91;5059631;28;20688;-75
2023/01/04 06:34:35;;;;;;;29.37;16.73;;;;;;;8.03;100.00;95704.78;5057199;28;20220;-74
2023/01/04 06:37:02;;;;;;;30.70;17.47;;;;;;;8.05;100.00;95705.44;5054365;28;20196;-74
2023/01/04 06:39:29;;;;;;;25.07;16.33;;;;;;;8.10;100.00;95702.31;5055569;28;20184;-75
2023/01/04 06:41:57;;;;;;;29.43;17.70;;;;;;;8.15;100.00;95705.16;5059854;28;20552;-74
2023/01/04 06:44:24;;;;;;;28.43;17.97;;;;;;;8.14;100.00;95706.94;5058721;28;20208;-74
2023/01/04 06:46:51;;;;;;;30.63;18.13;;;;;;;8.17;100.00;95710.97;5058988;28;20680;-74
2023/01/04 06:49:17;;;;;;;29.17;17.20;;;;;;;8.15;100.00;95708.56;5056247;28;20211;-75
2023/01/04 06:51:44;;;;;;;26.83;16.87;;;;;;;8.16;100.00;95707.59;5057954;28;21585;-75
2023/01/04 06:54:11;;;;;;;31.67;18.07;;;;;;;8.17;100.00;95705.78;5057896;28;20197;-74
2023/01/04 06:56:38;;;;;;;30.50;16.60;;;;;;;7.89;100.00;95672.72;5052529;28;20292;-72
2023/01/04 06:59:08;;;;;;;28.63;16.70;;;;;;;8.04;100.00;95697.84;5057281;28;20191;-73
2023/01/04 07:01:35;;;;;;;29.20;15.23;;;;;;;8.08;100.00;95706.88;5055817;28;20664;-76
2023/01/04 07:04:02;;;;;;;30.00;15.57;;;;;;;8.11;100.00;95704.72;5056221;28;20200;-74
2023/01/04 07:06:29;;;;;;;25.70;15.87;;;;;;;8.16;100.00;95697.25;5059043;28;20221;-73
2023/01/04 07:08:56;;;;;;;30.97;18.23;;;;;;;8.12;100.00;95697.75;5054872;28;20220;-72
2023/01/04 07:11:22;;;;;;;33.07;19.07;;;;;;;8.27;100.00;95712.38;5052975;28;20193;-74
2023/01/04 07:13:51;;;;;;;29.17;16.90;;;;;;;8.24;100.00;95715.28;5056511;28;20568;-74
2023/01/04 07:16:19;;;;;;;33.43;18.70;;;;;;;8.24;100.00;95715.28;5055422;28;20197;-73
2023/01/04 07:18:46;;;;;;;30.43;17.90;;;;;;;8.28;100.00;95724.31;5053337;28;20586;-73
2023/01/04 07:21:13;;;;;;;31.50;17.27;;;;;;;8.32;100.00;95711.81;5055563;28;20197;-73
2023/01/04 07:23:40;;;;;;;28.83;16.10;;;;;;;8.38;100.00;95722.28;5054633;28;20209;-73
2023/01/04 07:26:07;;;;;;;40.90;21.13;;;;;;;8.36;100.00;95732.03;5058569;28;20194;-74
2023/01/04 07:31:19;;;;;;;37.47;19.00;;;;;;;8.19;100.00;95738.31;5055484;28;20207;-74
2023/01/04 07:33:49;;;;;;;30.33;17.10;;;;;;;8.22;100.00;95732.78;5056988;28;20225;-74
2023/01/04 07:36:16;;;;;;;34.67;17.13;;;;;;;8.15;100.00;95738.81;5055456;28;20635;-73
2023/01/04 07:38:43;;;;;;;32.13;16.83;;;;;;;7.77;100.00;95700.00;5060339;28;20197;-74
2023/01/04 07:41:10;;;;;;;27.10;15.87;;;;;;;8.11;100.00;95735.78;5061748;28;20267;-75
2023/01/04 07:43:37;;;;;;;25.43;15.67;;;;;;;8.20;100.00;95728.75;5056860;28;20680;-73
2023/01/04 07:46:03;;;;;;;36.43;18.40;;;;;;;8.22;100.00;95731.97;5061449;28;20335;-73
2023/01/04 07:48:32;;;;;;;39.90;21.17;;;;;;;8.32;100.00;95729.94;5061600;28;20219;-73
2023/01/04 07:50:58;;;;;;;28.83;15.63;;;;;;;8.28;100.00;95736.47;5062136;28;20196;-73
2023/01/04 07:53:25;;;;;;;25.77;14.90;;;;;;;8.29;100.00;95735.47;5060374;28;20204;-73
2023/01/04 07:55:55;;;;;;;28.43;17.30;;;;;;;8.33;100.00;95744.53;5059718;28;20680;-74
2023/01/04 07:58:22;;;;;;;25.80;15.43;;;;;;;8.39;100.00;95738.63;5056594;28;20268;-73
2023/01/04 08:00:50;;;;;;;24.63;15.03;;;;;;;8.34;100.00;95738.38;5058756;28;20198;-73
2023/01/04 08:03:16;;;;;;;29.57;18.17;;;;;;;8.37;100.00;95738.00;5063337;28;20250;-73
2023/01/04 08:05:45;;;;;;;31.67;16.73;;;;;;;8.42;100.00;95739.09;5062543;28;20208;-72
2023/01/04 08:08:12;;;;;;;21.73;13.33;;;;;;;8.36;100.00;95742.38;5059322;28;20193;-74
2023/01/04 08:10:39;;;;;;;25.53;16.83;;;;;;;8.28;100.00;95734.66;5059613;28;20196;-72
2023/01/04 08:13:06;;;;;;;29.30;18.00;;;;;;;8.13;100.00;95748.56;5059907;28;20200;-72
2023/01/04 08:15:32;;;;;;;25.63;15.37;;;;;;;8.21;100.00;95756.25;5059723;28;20189;-72
2023/01/04 08:17:59;;;;;;;23.70;14.07;;;;;;;8.29;100.00;95749.25;5061871;28;20195;-72
2023/01/04 08:20:26;;;;;;;23.93;14.33;;;;;;;8.25;100.00;95745.38;5055444;28;20216;-73
2023/01/04 08:22:54;;;;;;;23.87;15.00;;;;;;;8.29;100.00;95749.25;5061040;28;20683;-74
2023/01/04 08:25:21;;;;;;;22.80;14.17;;;;;;;8.15;100.00;95741.41;5062938;28;20190;-74
2023/01/04 08:27:48;;;;;;;27.53;14.63;;;;;;;8.11;100.00;95748.72;5059732;28;20185;-74
2023/01/04 08:30:15;;;;;;;28.13;15.30;;;;;;;8.12;100.00;95755.53;5060105;28;20225;-74
2023/01/04 08:32:41;;;;;;;27.63;16.33;;;;;;;8.08;100.00;95735.34;5063755;28;20212;-80
2023/01/04 08:35:08;;;;;;;26.87;16.17;;;;;;;8.18;100.00;95754.00;5064882;28;20197;-79
2023/01/04 08:37:35;;;;;;;26.13;15.60;;;;;;;8.35;100.00;95747.72;5065432;28;21134;-78
2023/01/04 08:40:04;;;;;;;25.37;15.13;;;;;;;8.23;100.00;95744.72;5057543;28;20208;-76
2023/01/04 08:42:31;;;;;;;26.10;16.00;;;;;;;8.33;100.00;95752.28;5062208;28;20225;-81
2023/01/04 08:44:59;;;;;;;25.30;16.40;;;;;;;8.33;100.00;95747.91;5054961;28;20226;-75
2023/01/04 08:47:27;;;;;;;23.33;14.13;;;;;;;8.28;100.00;95745.03;5053446;28;21030;-75
2023/01/04 08:49:54;;;;;;;24.17;14.00;;;;;;;8.14;100.00;95748.38;5056508;28;20212;-80
2023/01/04 08:52:27;;;;;;;25.07;14.60;;;;;;;8.20;100.00;95752.84;5066118;28;20197;-82
2023/01/04 08:54:54;;;;;;;27.63;15.30;;;;;;;8.26;100.00;95754.75;5052076;28;20204;-75
2023/01/04 08:57:22;;;;;;;23.73;14.37;;;;;;;8.16;100.00;95749.03;5052403;28;20192;-77
2023/01/04 08:59:49;;;;;;;21.67;14.00;;;;;;;8.16;100.00;95743.84;5060054;28;20192;-79
2023/01/04 09:02:21;;;;;;;23.63;13.80;;;;;;;8.08;100.00;95754.25;5065227;28;20634;-78
2023/01/04 09:04:58;;;;;;;23.37;13.50;;;;;;;8.10;100.00;95754.09;5082732;28;20197;-77
2023/01/04 09:07:29;;;;;;;24.60;15.10;;;;;;;8.08;100.00;95735.34;5084863;28;20199;-78
2023/01/04 09:09:55;;;;;;;28.20;16.30;;;;;;;8.05;100.00;95740.88;5081791;28;20220;-77
2023/01/04 09:12:24;;;;;;;26.07;15.97;;;;;;;8.05;100.00;95753.81;5082085;28;20196;-79
2023/01/04 09:14:51;;;;;;;23.43;13.43;;;;;;;7.97;100.00;95744.31;5085689;28;20204;-78
2023/01/04 09:17:18;;;;;;;25.40;15.43;;;;;;;7.94;100.00;95742.88;5081312;28;20208;-76
2023/01/04 09:19:45;;;;;;;21.50;13.30;;;;;;;7.90;100.00;95738.25;5084758;28;20652;-75
2023/01/04 09:22:11;;;;;;;25.40;15.30;;;;;;;7.99;100.00;95742.38;5082773;28;20192;-77
2023/01/04 09:24:38;;;;;;;24.27;14.33;;;;;;;8.07;100.00;95746.66;5081233;28;20296;-76
2023/01/04 09:27:18;;;;;;;23.27;14.20;;;;;;;8.08;100.00;95748.28;5085109;28;20204;-77
2023/01/04 09:29:46;;;;;;;19.93;12.53;;;;;;;8.04;100.00;95739.25;5083463;28;20220;-79
2023/01/04 09:32:13;;;;;;;28.63;15.90;;;;;;;7.96;100.00;95734.97;5084869;28;20205;-76
2023/01/04 09:34:41;;;;;;;25.20;14.60;;;;;;;7.98;100.00;95736.41;5083618;28;20243;-79
2023/01/04 09:37:08;;;;;;;24.47;14.23;;;;;;;8.02;100.00;95734.25;5083423;28;20200;-80
2023/01/04 09:39:35;;;;;;;27.77;16.03;;;;;;;8.09;100.00;95729.16;5084017;28;20227;-79
2023/01/04 09:42:11;;;;;;;33.53;17.43;;;;;;;8.03;100.00;95730.69;5084539;28;20660;-77
2023/01/04 09:44:42;;;;;;;29.90;14.43;;;;;;;8.15;100.00;95739.63;5080043;28;20667;-76
2023/01/04 09:47:13;;;;;;;23.13;14.67;;;;;;;8.26;100.00;95736.63;5081398;28;20200;-74
2023/01/04 09:49:45;;;;;;;27.73;14.83;;;;;;;8.34;100.00;95735.78;5080990;28;20577;-77
2023/01/04 09:52:18;;;;;;;26.47;15.43;;;;;;;8.36;100.00;95728.63;5082476;28;20204;-77
2023/01/04 09:54:48;;;;;;;28.87;16.10;;;;;;;8.42;100.00;95723.56;5079650;28;20219;-78
2023/01/04 09:57:23;;;;;;;29.63;16.77;;;;;;;8.45;100.00;95728.38;5084956;28;20180;-84
2023/01/04 09:59:54;;;;;;;24.07;12.80;;;;;;;8.52;100.00;95720.69;5085890;28;20235;-81
2023/01/04 10:02:29;;;;;;;28.63;15.27;;;;;;;8.44;100.00;95721.56;5083267;28;20196;-80
2023/01/04 10:05:01;;;;;;;22.77;13.60;;;;;;;8.42;100.00;95725.34;5085764;28;20185;-81
2023/01/04 10:07:31;;;;;;;22.20;11.87;;;;;;;8.16;100.00;95724.91;5085990;28;20197;-79
2023/01/04 10:09:58;;;;;;;17.97;11.63;;;;;;;8.17;100.00;95724.72;5088444;28;20283;-81
2023/01/04 10:12:38;;;;;;;18.90;11.83;;;;;;;7.98;100.00;95713.09;5088928;28;20196;-81
2023/01/04 10:15:15;;;;;;;21.10;13.27;;;;;;;7.94;100.00;95729.94;5085957;28;20542;-82
2023/01/04 10:18:04;;;;;;;29.33;15.53;;;;;;;7.94;100.00;95727.34;5084484;28;20208;-80
2023/01/04 10:20:49;;;;;;;21.30;13.23;;;;;;;7.88;100.00;95712.53;5085309;28;20576;-82
2023/01/04 10:23:27;;;;;;;25.23;15.10;;;;;;;8.13;100.00;95722.66;5084054;28;20271;-82
2023/01/04 10:25:57;;;;;;;21.30;13.73;;;;;;;8.16;100.00;95725.72;5079047;28;20181;-76
2023/01/04 10:28:38;;;;;;;27.67;14.97;;;;;;;8.13;100.00;95722.66;5083775;28;20196;-76
2023/01/04 10:31:12;;;;;;;24.17;14.73;;;;;;;8.19;100.00;95721.97;5082430;28;20208;-77
2023/01/04 10:33:46;;;;;;;27.40;14.10;;;;;;;8.27;100.00;95727.91;5078357;28;20596;-77
2023/01/04 10:36:19;;;;;;;22.43;13.03;;;;;;;8.35;100.00;95724.41;5083224;28;20193;-76
2023/01/04 10:38:46;;;;;;;34.43;19.30;;;;;;;8.25;100.00;95719.50;5082917;28;20276;-78
2023/01/04 10:41:23;;;;;;;28.60;17.60;;;;;;;8.10;100.00;95712.66;5079735;28;20196;-76
2023/01/04 10:44:03;;;;;;;23.33;14.40;;;;;;;7.97;100.00;95715.84;5086680;28;20199;-81
2023/01/04 10:46:38;;;;;;;21.27;13.23;;;;;;;8.00;100.00;95725.84;5081885;28;20183;-80
2023/01/04 10:49:10;;;;;;;22.90;13.13;;;;;;;7.92;100.00;95728.50;5085040;28;20196;-81
2023/01/04 10:51:42;;;;;;;25.23;13.33;;;;;;;7.88;100.00;95717.69;5082835;28;20575;-81
2023/01/04 10:54:17;;;;;;;25.37;15.60;;;;;;;7.94;100.00;95719.59;5085768;28;20185;-82
2023/01/04 10:56:49;;;;;;;30.83;17.40;;;;;;;8.02;100.00;95714.34;5082274;28;20197;-80
2023/01/04 10:59:22;;;;;;;24.00;13.60;;;;;;;8.11;100.00;95716.88;5085101;28;20196;-81
2023/01/04 11:01:54;;;;;;;26.60;15.03;;;;;;;8.04;100.00;95713.38;5084230;28;20203;-82
2023/01/04 11:04:27;;;;;;;25.70;14.50;;;;;;;7.99;100.00;95706.91;5084951;28;20192;-81
2023/01/04 11:07:00;;;;;;;23.53;14.37;;;;;;;8.02;100.00;95696.22;5083215;28;20227;-81
2023/01/04 11:09:33;;;;;;;22.13;12.73;;;;;;;8.06;100.00;95707.03;5085205;28;20177;-80
2023/01/04 11:12:02;;;;;;;19.77;12.23;;;;;;;7.98;100.00;95701.94;5081850;28;20185;-80
2023/01/04 11:14:29;;;;;;;18.23;11.80;;;;;;;8.09;100.00;95696.31;5082768;28;20193;-80
2023/01/04 11:17:01;;;;;;;23.20;12.63;;;;;;;8.14;100.00;95703.59;5084914;28;20267;-81
2023/01/04 11:19:30;;;;;;;19.47;11.97;;;;;;;8.07;100.00;95697.47;5080695;28;20186;-76
2023/01/04 11:22:02;;;;;;;18.67;11.37;;;;;;;8.06;100.00;95696.69;5079193;28;20200;-75
2023/01/04 11:24:31;;;;;;;20.83;12.77;;;;;;;8.14;100.00;95690.63;5081519;28;20209;-74
2023/01/04 11:27:03;;;;;;;20.87;12.63;;;;;;;8.25;100.00;95680.66;5076743;28;20623;-75
2023/01/04 11:29:35;;;;;;;26.30;15.07;;;;;;;8.29;100.00;95683.69;5078754;28;20201;-73
2023/01/04 11:32:06;;;;;;;23.33;13.43;;;;;;;8.36;100.00;95676.81;5081379;28;20199;-76
2023/01/04 11:34:47;;;;;;;23.37;14.10;;;;;;;8.37;100.00;95674.03;5080285;28;20690;-74
2023/01/04 11:37:29;;;;;;;20.37;12.40;;;;;;;8.34;100.00;95676.22;5082008;28;20283;-76
2023/01/04 11:40:27;;;;;;;21.63;13.33;;;;;;;8.37;100.00;95673.22;5079776;28;20189;-78
2023/01/04 11:43:12;;;;;;;21.83;13.27;;;;;;;8.28;100.00;95671.75;5007755;28;20195;-78
2023/01/04 11:45:39;;;;;;;19.60;11.93;;;;;;;8.41;100.00;95667.53;5071806;28;20220;-79
2023/01/04 11:48:06;;;;;;;23.93;14.47;;;;;;;8.30;100.00;95665.41;5080721;28;20207;-79
2023/01/04 11:50:43;;;;;;;25.50;14.77;;;;;;;8.36;100.00;95659.50;5085648;28;20216;-79
2023/01/04 11:53:29;;;;;;;26.97;14.83;;;;;;;8.47;100.00;95663.41;5082433;28;20825;-79
2023/01/04 11:56:10;;;;;;;23.80;14.43;;;;;;;8.50;100.00;95660.47;5082728;28;20211;-81
2023/01/04 11:58:37;;;;;;;27.57;15.80;;;;;;;8.56;100.00;95670.13;5083573;28;21624;-81
2023/01/04 12:01:05;;;;;;;26.40;14.80;;;;;;;8.65;100.00;95661.28;5086771;28;20189;-81
2023/01/04 12:03:36;;;;;;;19.93;11.67;;;;;;;8.68;100.00;95657.50;5085011;28;20185;-81
2023/01/04 12:06:12;;;;;;;23.27;13.17;;;;;;;8.51;100.00;95659.50;5077883;28;21644;-80
2023/01/04 12:08:40;;;;;;;24.67;13.80;;;;;;;8.51;100.00;95649.91;5073372;28;20211;-80
2023/01/04 12:11:24;;;;;;;27.57;14.63;;;;;;;8.79;100.00;95651.84;5081203;28;20262;-78
2023/01/04 12:13:51;;;;;;;24.80;14.30;;;;;;;9.34;100.00;95659.84;5082187;28;20193;-78
2023/01/04 12:16:28;;;;;;;25.63;13.50;;;;;;;10.16;97.91;95650.53;5083487;28;20288;-81
2023/01/04 12:18:55;;;;;;;25.63;14.17;;;;;;;11.25;92.56;95654.00;5083650;28;20197;-80